sensor_id;sensor_type;location;lat;lon;timestamp;P1;durP1;ratioP1;P2;durP2;ratioP2
52542;SDS011;38449;52.696;6.186;2023-01-08T00:00:50;4.88;;;2.80;;
52542;SDS011;38449;52.696;6.186;2023-01-08T00:03:16;4.57;;;3.10;;
52542;SDS011;38449;52.696;6.186;2023-01-08T00:05:42;3.92;;;2.72;;
52542;SDS011;38449;52.696;6.186;2023-01-08T00:08:07;4.85;;;2.83;;
52542;SDS011;38449;52.696;6.186;2023-01-08T00:10:34;3.50;;;2.63;;
52542;SDS011;38449;52.696;6.186;2023-01-08T00:13:00;5.40;;;2.90;;
52542;SDS011;38449;52.696;6.186;2023-01-08T00:15:29;4.30;;;2.80;;
52542;SDS011;38449;52.696;6.186;2023-01-08T00:17:55;4.25;;;2.70;;
52542;SDS011;38449;52.696;6.186;2023-01-08T00:20:21;4.60;;;2.97;;
52542;SDS011;38449;52.696;6.186;2023-01-08T00:22:47;5.38;;;3.10;;
52542;SDS011;38449;52.696;6.186;2023-01-08T00:25:15;4.68;;;2.95;;
52542;SDS011;38449;52.696;6.186;2023-01-08T00:27:41;3.88;;;2.70;;
52542;SDS011;38449;52.696;6.186;2023-01-08T00:30:07;4.80;;;3.03;;
52542;SDS011;38449;52.696;6.186;2023-01-08T00:32:33;5.78;;;3.00;;
52542;SDS011;38449;52.696;6.186;2023-01-08T00:34:58;5.13;;;2.90;;
52542;SDS011;38449;52.696;6.186;2023-01-08T00:37:25;4.90;;;2.90;;
52542;SDS011;38449;52.696;6.186;2023-01-08T00:39:52;4.18;;;2.53;;
52542;SDS011;38449;52.696;6.186;2023-01-08T00:42:17;3.60;;;2.40;;
52542;SDS011;38449;52.696;6.186;2023-01-08T00:44:44;4.35;;;2.88;;
52542;SDS011;38449;52.696;6.186;2023-01-08T00:47:15;5.82;;;2.38;;
52542;SDS011;38449;52.696;6.186;2023-01-08T00:49:41;5.93;;;2.30;;
52542;SDS011;38449;52.696;6.186;2023-01-08T00:52:06;4.18;;;2.13;;
52542;SDS011;38449;52.696;6.186;2023-01-08T00:54:32;7.07;;;1.73;;
52542;SDS011;38449;52.696;6.186;2023-01-08T00:56:57;5.93;;;2.10;;
52542;SDS011;38449;52.696;6.186;2023-01-08T00:59:26;4.20;;;1.77;;
52542;SDS011;38449;52.696;6.186;2023-01-08T01:01:51;4.30;;;1.92;;
52542;SDS011;38449;52.696;6.186;2023-01-08T01:04:18;5.38;;;1.70;;
52542;SDS011;38449;52.696;6.186;2023-01-08T01:06:44;5.35;;;1.70;;
52542;SDS011;38449;52.696;6.186;2023-01-08T01:09:10;6.40;;;1.60;;
52542;SDS011;38449;52.696;6.186;2023-01-08T01:11:36;3.38;;;1.50;;
52542;SDS011;38449;52.696;6.186;2023-01-08T01:14:01;4.32;;;1.52;;
52542;SDS011;38449;52.696;6.186;2023-01-08T01:16:27;6.82;;;1.80;;
52542;SDS011;38449;52.696;6.186;2023-01-08T01:18:52;6.57;;;2.00;;
52542;SDS011;38449;52.696;6.186;2023-01-08T01:21:24;5.30;;;1.77;;
52542;SDS011;38449;52.696;6.186;2023-01-08T01:23:57;6.90;;;1.85;;
52542;SDS011;38449;52.696;6.186;2023-01-08T01:26:25;7.60;;;2.15;;
52542;SDS011;38449;52.696;6.186;2023-01-08T01:28:51;6.72;;;2.03;;
52542;SDS011;38449;52.696;6.186;2023-01-08T01:31:18;8.57;;;2.10;;
52542;SDS011;38449;52.696;6.186;2023-01-08T01:33:44;6.60;;;2.15;;
52542;SDS011;38449;52.696;6.186;2023-01-08T01:36:11;7.03;;;2.00;;
52542;SDS011;38449;52.696;6.186;2023-01-08T01:38:37;10.60;;;2.80;;
52542;SDS011;38449;52.696;6.186;2023-01-08T01:41:06;8.15;;;2.42;;
52542;SDS011;38449;52.696;6.186;2023-01-08T01:43:38;9.55;;;2.40;;
52542;SDS011;38449;52.696;6.186;2023-01-08T01:46:20;8.32;;;2.35;;
52542;SDS011;38449;52.696;6.186;2023-01-08T01:48:52;9.80;;;2.63;;
52542;SDS011;38449;52.696;6.186;2023-01-08T01:51:20;7.93;;;2.03;;
52542;SDS011;38449;52.696;6.186;2023-01-08T01:53:49;10.82;;;2.80;;
52542;SDS011;38449;52.696;6.186;2023-01-08T01:56:15;7.07;;;2.20;;
52542;SDS011;38449;52.696;6.186;2023-01-08T01:58:41;8.32;;;2.30;;
52542;SDS011;38449;52.696;6.186;2023-01-08T02:01:07;9.90;;;2.50;;
52542;SDS011;38449;52.696;6.186;2023-01-08T02:03:35;9.35;;;2.80;;
52542;SDS011;38449;52.696;6.186;2023-01-08T02:11:21;9.85;;;2.50;;
52542;SDS011;38449;52.696;6.186;2023-01-08T02:13:59;7.55;;;2.25;;
52542;SDS011;38449;52.696;6.186;2023-01-08T02:16:33;9.60;;;2.33;;
52542;SDS011;38449;52.696;6.186;2023-01-08T02:19:07;9.50;;;2.40;;
52542;SDS011;38449;52.696;6.186;2023-01-08T02:21:51;9.52;;;2.40;;
52542;SDS011;38449;52.696;6.186;2023-01-08T02:27:07;8.05;;;2.40;;
52542;SDS011;38449;52.696;6.186;2023-01-08T02:29:34;9.20;;;2.40;;
52542;SDS011;38449;52.696;6.186;2023-01-08T02:32:00;7.55;;;2.00;;
52542;SDS011;38449;52.696;6.186;2023-01-08T02:34:26;7.60;;;2.17;;
52542;SDS011;38449;52.696;6.186;2023-01-08T02:36:53;8.65;;;2.13;;
52542;SDS011;38449;52.696;6.186;2023-01-08T02:39:24;9.77;;;2.20;;
52542;SDS011;38449;52.696;6.186;2023-01-08T02:42:15;6.78;;;2.33;;
52542;SDS011;38449;52.696;6.186;2023-01-08T02:47:35;9.10;;;2.58;;
52542;SDS011;38449;52.696;6.186;2023-01-08T02:50:17;6.78;;;2.38;;
52542;SDS011;38449;52.696;6.186;2023-01-08T02:52:55;7.20;;;2.38;;
52542;SDS011;38449;52.696;6.186;2023-01-08T02:55:33;7.03;;;2.47;;
52542;SDS011;38449;52.696;6.186;2023-01-08T02:58:01;6.28;;;2.65;;
52542;SDS011;38449;52.696;6.186;2023-01-08T03:00:28;7.03;;;2.10;;
52542;SDS011;38449;52.696;6.186;2023-01-08T03:03:06;4.28;;;2.00;;
52542;SDS011;38449;52.696;6.186;2023-01-08T03:05:42;6.78;;;3.00;;
52542;SDS011;38449;52.696;6.186;2023-01-08T03:08:12;4.50;;;2.25;;
52542;SDS011;38449;52.696;6.186;2023-01-08T03:10:38;6.43;;;2.50;;
52542;SDS011;38449;52.696;6.186;2023-01-08T03:13:08;6.97;;;3.10;;
52542;SDS011;38449;52.696;6.186;2023-01-08T03:15:46;5.13;;;2.40;;
52542;SDS011;38449;52.696;6.186;2023-01-08T03:18:17;5.85;;;3.00;;
52542;SDS011;38449;52.696;6.186;2023-01-08T03:20:47;4.63;;;2.55;;
52542;SDS011;38449;52.696;6.186;2023-01-08T03:23:14;5.70;;;2.78;;
52542;SDS011;38449;52.696;6.186;2023-01-08T03:25:43;5.78;;;2.80;;
52542;SDS011;38449;52.696;6.186;2023-01-08T03:28:12;5.50;;;2.85;;
52542;SDS011;38449;52.696;6.186;2023-01-08T03:30:43;5.53;;;2.70;;
52542;SDS011;38449;52.696;6.186;2023-01-08T03:33:10;4.50;;;2.75;;
52542;SDS011;38449;52.696;6.186;2023-01-08T03:35:38;8.40;;;3.03;;
52542;SDS011;38449;52.696;6.186;2023-01-08T03:38:08;6.78;;;3.00;;
52542;SDS011;38449;52.696;6.186;2023-01-08T03:40:39;8.00;;;3.22;;
52542;SDS011;38449;52.696;6.186;2023-01-08T03:43:09;6.70;;;3.00;;
52542;SDS011;38449;52.696;6.186;2023-01-08T03:45:36;6.85;;;3.10;;
52542;SDS011;38449;52.696;6.186;2023-01-08T03:48:06;6.20;;;2.78;;
52542;SDS011;38449;52.696;6.186;2023-01-08T03:50:33;5.15;;;2.63;;
52542;SDS011;38449;52.696;6.186;2023-01-08T03:52:58;7.25;;;3.00;;
52542;SDS011;38449;52.696;6.186;2023-01-08T03:55:24;6.90;;;3.78;;
52542;SDS011;38449;52.696;6.186;2023-01-08T03:57:50;5.07;;;2.85;;
52542;SDS011;38449;52.696;6.186;2023-01-08T04:00:16;7.05;;;3.10;;
52542;SDS011;38449;52.696;6.186;2023-01-08T04:02:42;4.55;;;2.95;;
52542;SDS011;38449;52.696;6.186;2023-01-08T04:05:08;6.38;;;3.28;;
52542;SDS011;38449;52.696;6.186;2023-01-08T04:07:34;5.65;;;2.85;;
52542;SDS011;38449;52.696;6.186;2023-01-08T04:10:00;7.85;;;2.70;;
52542;SDS011;38449;52.696;6.186;2023-01-08T04:12:26;5.90;;;2.50;;
52542;SDS011;38449;52.696;6.186;2023-01-08T04:14:51;3.97;;;2.70;;
52542;SDS011;38449;52.696;6.186;2023-01-08T04:17:17;4.85;;;2.33;;
52542;SDS011;38449;52.696;6.186;2023-01-08T04:19:44;5.00;;;2.30;;
52542;SDS011;38449;52.696;6.186;2023-01-08T04:22:10;8.30;;;2.80;;
52542;SDS011;38449;52.696;6.186;2023-01-08T04:24:35;7.03;;;2.60;;
52542;SDS011;38449;52.696;6.186;2023-01-08T04:27:01;5.50;;;2.67;;
52542;SDS011;38449;52.696;6.186;2023-01-08T04:29:27;5.55;;;2.30;;
52542;SDS011;38449;52.696;6.186;2023-01-08T04:31:52;6.47;;;2.33;;
52542;SDS011;38449;52.696;6.186;2023-01-08T04:34:18;4.43;;;2.35;;
52542;SDS011;38449;52.696;6.186;2023-01-08T04:36:43;4.55;;;2.33;;
52542;SDS011;38449;52.696;6.186;2023-01-08T04:39:09;5.70;;;2.00;;
52542;SDS011;38449;52.696;6.186;2023-01-08T04:41:35;3.70;;;2.05;;
52542;SDS011;38449;52.696;6.186;2023-01-08T04:44:06;5.70;;;2.22;;
52542;SDS011;38449;52.696;6.186;2023-01-08T04:46:32;3.60;;;2.22;;
52542;SDS011;38449;52.696;6.186;2023-01-08T04:48:58;4.47;;;2.30;;
52542;SDS011;38449;52.696;6.186;2023-01-08T04:51:23;4.05;;;2.08;;
52542;SDS011;38449;52.696;6.186;2023-01-08T04:53:50;4.70;;;2.15;;
52542;SDS011;38449;52.696;6.186;2023-01-08T04:56:16;3.10;;;2.03;;
52542;SDS011;38449;52.696;6.186;2023-01-08T04:58:41;3.85;;;2.00;;
52542;SDS011;38449;52.696;6.186;2023-01-08T05:01:11;5.00;;;2.38;;
52542;SDS011;38449;52.696;6.186;2023-01-08T05:03:42;3.05;;;1.90;;
52542;SDS011;38449;52.696;6.186;2023-01-08T05:06:08;7.32;;;2.65;;
52542;SDS011;38449;52.696;6.186;2023-01-08T05:08:35;4.88;;;2.05;;
52542;SDS011;38449;52.696;6.186;2023-01-08T05:11:01;5.40;;;2.28;;
52542;SDS011;38449;52.696;6.186;2023-01-08T05:13:28;6.13;;;2.30;;
52542;SDS011;38449;52.696;6.186;2023-01-08T05:15:57;5.03;;;2.17;;
52542;SDS011;38449;52.696;6.186;2023-01-08T05:18:24;5.97;;;2.65;;
52542;SDS011;38449;52.696;6.186;2023-01-08T05:20:52;6.03;;;2.40;;
52542;SDS011;38449;52.696;6.186;2023-01-08T05:23:17;5.18;;;2.55;;
52542;SDS011;38449;52.696;6.186;2023-01-08T05:25:43;6.00;;;2.30;;
52542;SDS011;38449;52.696;6.186;2023-01-08T05:28:08;4.32;;;2.67;;
52542;SDS011;38449;52.696;6.186;2023-01-08T05:30:35;5.85;;;2.70;;
52542;SDS011;38449;52.696;6.186;2023-01-08T05:33:01;5.78;;;2.80;;
52542;SDS011;38449;52.696;6.186;2023-01-08T05:35:27;5.30;;;2.70;;
52542;SDS011;38449;52.696;6.186;2023-01-08T05:37:53;6.72;;;3.28;;
52542;SDS011;38449;52.696;6.186;2023-01-08T05:40:19;5.18;;;3.03;;
52542;SDS011;38449;52.696;6.186;2023-01-08T05:42:45;6.95;;;2.78;;
52542;SDS011;38449;52.696;6.186;2023-01-08T05:45:10;4.85;;;3.15;;
52542;SDS011;38449;52.696;6.186;2023-01-08T05:47:36;5.53;;;2.90;;
52542;SDS011;38449;52.696;6.186;2023-01-08T05:50:01;6.18;;;2.90;;
52542;SDS011;38449;52.696;6.186;2023-01-08T05:52:27;5.10;;;2.80;;
52542;SDS011;38449;52.696;6.186;2023-01-08T05:54:53;9.27;;;3.55;;
52542;SDS011;38449;52.696;6.186;2023-01-08T05:57:18;4.65;;;2.97;;
52542;SDS011;38449;52.696;6.186;2023-01-08T05:59:44;5.40;;;2.90;;
52542;SDS011;38449;52.696;6.186;2023-01-08T06:02:09;6.50;;;2.88;;
52542;SDS011;38449;52.696;6.186;2023-01-08T06:04:35;5.55;;;2.65;;
52542;SDS011;38449;52.696;6.186;2023-01-08T06:07:01;5.70;;;2.90;;
52542;SDS011;38449;52.696;6.186;2023-01-08T06:09:26;8.00;;;2.95;;
52542;SDS011;38449;52.696;6.186;2023-01-08T06:11:52;7.90;;;2.40;;
52542;SDS011;38449;52.696;6.186;2023-01-08T06:14:17;6.22;;;2.58;;
52542;SDS011;38449;52.696;6.186;2023-01-08T06:16:43;7.82;;;2.78;;
52542;SDS011;38449;52.696;6.186;2023-01-08T06:19:09;6.68;;;2.30;;
52542;SDS011;38449;52.696;6.186;2023-01-08T06:21:35;6.90;;;2.67;;
52542;SDS011;38449;52.696;6.186;2023-01-08T06:24:02;9.07;;;2.55;;
52542;SDS011;38449;52.696;6.186;2023-01-08T06:26:28;4.82;;;2.47;;
52542;SDS011;38449;52.696;6.186;2023-01-08T06:28:53;6.18;;;2.60;;
52542;SDS011;38449;52.696;6.186;2023-01-08T06:31:19;7.47;;;2.53;;
52542;SDS011;38449;52.696;6.186;2023-01-08T06:33:44;5.82;;;2.28;;
52542;SDS011;38449;52.696;6.186;2023-01-08T06:36:10;6.55;;;2.10;;
52542;SDS011;38449;52.696;6.186;2023-01-08T06:38:36;8.85;;;2.53;;
52542;SDS011;38449;52.696;6.186;2023-01-08T06:41:02;6.35;;;2.15;;
52542;SDS011;38449;52.696;6.186;2023-01-08T06:43:29;5.03;;;1.92;;
52542;SDS011;38449;52.696;6.186;2023-01-08T06:45:55;4.93;;;1.88;;
52542;SDS011;38449;52.696;6.186;2023-01-08T06:48:22;4.55;;;1.85;;
52542;SDS011;38449;52.696;6.186;2023-01-08T06:50:50;4.03;;;1.60;;
52542;SDS011;38449;52.696;6.186;2023-01-08T06:53:16;5.60;;;2.13;;
52542;SDS011;38449;52.696;6.186;2023-01-08T06:55:42;4.32;;;1.52;;
52542;SDS011;38449;52.696;6.186;2023-01-08T06:58:08;6.88;;;1.77;;
52542;SDS011;38449;52.696;6.186;2023-01-08T07:00:36;6.47;;;1.90;;
52542;SDS011;38449;52.696;6.186;2023-01-08T07:03:02;7.82;;;2.50;;
52542;SDS011;38449;52.696;6.186;2023-01-08T07:05:28;6.88;;;2.45;;
52542;SDS011;38449;52.696;6.186;2023-01-08T07:07:53;6.10;;;1.70;;
52542;SDS011;38449;52.696;6.186;2023-01-08T07:10:20;9.18;;;2.15;;
52542;SDS011;38449;52.696;6.186;2023-01-08T07:12:46;7.20;;;1.92;;
52542;SDS011;38449;52.696;6.186;2023-01-08T07:15:13;9.75;;;2.05;;
52542;SDS011;38449;52.696;6.186;2023-01-08T07:17:39;6.70;;;2.13;;
52542;SDS011;38449;52.696;6.186;2023-01-08T07:20:06;7.35;;;2.00;;
52542;SDS011;38449;52.696;6.186;2023-01-08T07:22:33;6.82;;;2.53;;
52542;SDS011;38449;52.696;6.186;2023-01-08T07:24:59;5.80;;;2.17;;
52542;SDS011;38449;52.696;6.186;2023-01-08T07:27:24;7.95;;;2.60;;
52542;SDS011;38449;52.696;6.186;2023-01-08T07:29:50;6.72;;;2.65;;
52542;SDS011;38449;52.696;6.186;2023-01-08T07:32:15;8.85;;;2.72;;
52542;SDS011;38449;52.696;6.186;2023-01-08T07:34:41;6.25;;;2.60;;
52542;SDS011;38449;52.696;6.186;2023-01-08T07:37:08;9.80;;;3.10;;
52542;SDS011;38449;52.696;6.186;2023-01-08T07:39:33;8.52;;;2.60;;
52542;SDS011;38449;52.696;6.186;2023-01-08T07:41:59;7.82;;;2.63;;
52542;SDS011;38449;52.696;6.186;2023-01-08T07:44:24;7.45;;;2.60;;
52542;SDS011;38449;52.696;6.186;2023-01-08T07:46:50;7.13;;;2.60;;
52542;SDS011;38449;52.696;6.186;2023-01-08T07:49:15;8.02;;;2.50;;
52542;SDS011;38449;52.696;6.186;2023-01-08T07:51:41;7.50;;;2.40;;
52542;SDS011;38449;52.696;6.186;2023-01-08T07:54:07;7.90;;;2.63;;
52542;SDS011;38449;52.696;6.186;2023-01-08T07:56:33;5.93;;;2.20;;
52542;SDS011;38449;52.696;6.186;2023-01-08T07:58:58;6.05;;;2.42;;
52542;SDS011;38449;52.696;6.186;2023-01-08T08:01:24;6.45;;;2.20;;
52542;SDS011;38449;52.696;6.186;2023-01-08T08:03:50;8.13;;;2.15;;
52542;SDS011;38449;52.696;6.186;2023-01-08T08:06:16;7.35;;;2.50;;
52542;SDS011;38449;52.696;6.186;2023-01-08T08:08:47;7.25;;;2.10;;
52542;SDS011;38449;52.696;6.186;2023-01-08T08:11:13;9.82;;;3.00;;
52542;SDS011;38449;52.696;6.186;2023-01-08T08:13:38;8.15;;;2.22;;
52542;SDS011;38449;52.696;6.186;2023-01-08T08:16:08;7.88;;;2.22;;
52542;SDS011;38449;52.696;6.186;2023-01-08T08:18:34;7.57;;;2.10;;
52542;SDS011;38449;52.696;6.186;2023-01-08T08:21:00;5.78;;;2.10;;
52542;SDS011;38449;52.696;6.186;2023-01-08T08:23:26;7.30;;;2.10;;
52542;SDS011;38449;52.696;6.186;2023-01-08T08:25:53;5.07;;;2.10;;
52542;SDS011;38449;52.696;6.186;2023-01-08T08:28:19;4.28;;;1.90;;
52542;SDS011;38449;52.696;6.186;2023-01-08T08:30:45;6.35;;;2.15;;
52542;SDS011;38449;52.696;6.186;2023-01-08T08:33:10;8.10;;;1.90;;
52542;SDS011;38449;52.696;6.186;2023-01-08T08:35:36;5.13;;;1.83;;
52542;SDS011;38449;52.696;6.186;2023-01-08T08:38:02;5.38;;;2.10;;
52542;SDS011;38449;52.696;6.186;2023-01-08T08:40:28;6.13;;;2.03;;
52542;SDS011;38449;52.696;6.186;2023-01-08T08:42:58;6.45;;;2.38;;
52542;SDS011;38449;52.696;6.186;2023-01-08T08:45:34;6.97;;;2.03;;
52542;SDS011;38449;52.696;6.186;2023-01-08T08:48:00;5.78;;;2.15;;
52542;SDS011;38449;52.696;6.186;2023-01-08T08:50:26;5.45;;;1.65;;
52542;SDS011;38449;52.696;6.186;2023-01-08T08:52:57;5.63;;;2.17;;
52542;SDS011;38449;52.696;6.186;2023-01-08T08:55:23;7.13;;;1.98;;
52542;SDS011;38449;52.696;6.186;2023-01-08T08:57:49;6.55;;;2.55;;
52542;SDS011;38449;52.696;6.186;2023-01-08T09:00:14;5.78;;;2.20;;
52542;SDS011;38449;52.696;6.186;2023-01-08T09:02:40;6.50;;;2.30;;
52542;SDS011;38449;52.696;6.186;2023-01-08T09:05:06;5.93;;;2.03;;
52542;SDS011;38449;52.696;6.186;2023-01-08T09:07:32;8.52;;;2.03;;
52542;SDS011;38449;52.696;6.186;2023-01-08T09:09:58;6.50;;;2.00;;
52542;SDS011;38449;52.696;6.186;2023-01-08T09:12:23;5.47;;;1.88;;
52542;SDS011;38449;52.696;6.186;2023-01-08T09:14:54;6.47;;;2.00;;
52542;SDS011;38449;52.696;6.186;2023-01-08T09:17:21;5.53;;;2.38;;
52542;SDS011;38449;52.696;6.186;2023-01-08T09:19:46;6.57;;;2.28;;
52542;SDS011;38449;52.696;6.186;2023-01-08T09:22:12;8.35;;;2.40;;
52542;SDS011;38449;52.696;6.186;2023-01-08T09:24:38;8.88;;;2.35;;
52542;SDS011;38449;52.696;6.186;2023-01-08T09:27:03;9.20;;;2.83;;
52542;SDS011;38449;52.696;6.186;2023-01-08T09:29:29;4.28;;;1.95;;
52542;SDS011;38449;52.696;6.186;2023-01-08T09:31:54;6.80;;;2.25;;
52542;SDS011;38449;52.696;6.186;2023-01-08T09:34:21;5.85;;;2.15;;
52542;SDS011;38449;52.696;6.186;2023-01-08T09:36:47;6.75;;;2.13;;
52542;SDS011;38449;52.696;6.186;2023-01-08T09:39:12;6.70;;;2.42;;
52542;SDS011;38449;52.696;6.186;2023-01-08T09:41:38;9.13;;;2.03;;
52542;SDS011;38449;52.696;6.186;2023-01-08T09:44:13;8.00;;;2.47;;
52542;SDS011;38449;52.696;6.186;2023-01-08T09:46:42;6.45;;;2.20;;
52542;SDS011;38449;52.696;6.186;2023-01-08T09:49:11;10.32;;;2.92;;
52542;SDS011;38449;52.696;6.186;2023-01-08T09:51:43;9.35;;;2.22;;
52542;SDS011;38449;52.696;6.186;2023-01-08T09:54:10;8.43;;;2.30;;
52542;SDS011;38449;52.696;6.186;2023-01-08T09:56:39;10.85;;;2.65;;
52542;SDS011;38449;52.696;6.186;2023-01-08T09:59:05;8.45;;;2.17;;
52542;SDS011;38449;52.696;6.186;2023-01-08T10:01:35;9.32;;;2.35;;
52542;SDS011;38449;52.696;6.186;2023-01-08T10:04:23;11.55;;;2.33;;
52542;SDS011;38449;52.696;6.186;2023-01-08T10:06:52;9.00;;;2.38;;
52542;SDS011;38449;52.696;6.186;2023-01-08T10:09:23;8.25;;;2.50;;
52542;SDS011;38449;52.696;6.186;2023-01-08T10:11:51;9.43;;;2.33;;
52542;SDS011;38449;52.696;6.186;2023-01-08T10:14:24;11.65;;;2.78;;
52542;SDS011;38449;52.696;6.186;2023-01-08T10:16:56;11.40;;;2.55;;
52542;SDS011;38449;52.696;6.186;2023-01-08T10:19:24;11.35;;;2.88;;
52542;SDS011;38449;52.696;6.186;2023-01-08T10:21:50;14.32;;;2.65;;
52542;SDS011;38449;52.696;6.186;2023-01-08T10:24:17;9.77;;;2.72;;
52542;SDS011;38449;52.696;6.186;2023-01-08T10:27:03;11.90;;;2.75;;
52542;SDS011;38449;52.696;6.186;2023-01-08T10:29:50;12.60;;;3.30;;
52542;SDS011;38449;52.696;6.186;2023-01-08T10:32:17;8.30;;;2.60;;
52542;SDS011;38449;52.696;6.186;2023-01-08T10:34:48;12.80;;;2.70;;
52542;SDS011;38449;52.696;6.186;2023-01-08T10:37:16;10.23;;;2.70;;
52542;SDS011;38449;52.696;6.186;2023-01-08T10:39:48;9.38;;;2.63;;
52542;SDS011;38449;52.696;6.186;2023-01-08T10:42:16;10.57;;;3.03;;
52542;SDS011;38449;52.696;6.186;2023-01-08T10:45:02;10.82;;;2.78;;
52542;SDS011;38449;52.696;6.186;2023-01-08T10:47:31;12.10;;;2.88;;
52542;SDS011;38449;52.696;6.186;2023-01-08T10:50:00;10.32;;;2.78;;
52542;SDS011;38449;52.696;6.186;2023-01-08T10:52:30;8.25;;;2.60;;
52542;SDS011;38449;52.696;6.186;2023-01-08T10:57:52;10.20;;;2.88;;
52542;SDS011;38449;52.696;6.186;2023-01-08T11:00:23;10.38;;;2.35;;
52542;SDS011;38449;52.696;6.186;2023-01-08T11:02:50;7.47;;;2.33;;
52542;SDS011;38449;52.696;6.186;2023-01-08T11:05:16;11.13;;;3.20;;
52542;SDS011;38449;52.696;6.186;2023-01-08T11:07:41;12.23;;;2.55;;
52542;SDS011;38449;52.696;6.186;2023-01-08T11:10:21;10.85;;;2.88;;
52542;SDS011;38449;52.696;6.186;2023-01-08T11:12:52;8.40;;;2.65;;
52542;SDS011;38449;52.696;6.186;2023-01-08T11:18:15;10.02;;;3.20;;
52542;SDS011;38449;52.696;6.186;2023-01-08T11:20:46;7.07;;;2.78;;
52542;SDS011;38449;52.696;6.186;2023-01-08T11:23:16;12.15;;;3.40;;
52542;SDS011;38449;52.696;6.186;2023-01-08T11:25:50;14.98;;;3.20;;
52542;SDS011;38449;52.696;6.186;2023-01-08T11:28:43;8.80;;;3.13;;
52542;SDS011;38449;52.696;6.186;2023-01-08T11:31:34;9.48;;;2.60;;
52542;SDS011;38449;52.696;6.186;2023-01-08T11:34:30;9.52;;;2.35;;
52542;SDS011;38449;52.696;6.186;2023-01-08T11:37:20;9.05;;;2.75;;
52542;SDS011;38449;52.696;6.186;2023-01-08T11:39:49;9.70;;;2.60;;
52542;SDS011;38449;52.696;6.186;2023-01-08T11:42:26;6.53;;;2.60;;
52542;SDS011;38449;52.696;6.186;2023-01-08T11:53:28;9.88;;;3.05;;
52542;SDS011;38449;52.696;6.186;2023-01-08T11:56:06;9.23;;;2.58;;
52542;SDS011;38449;52.696;6.186;2023-01-08T12:01:40;9.57;;;2.92;;
52542;SDS011;38449;52.696;6.186;2023-01-08T12:04:33;9.48;;;2.42;;
52542;SDS011;38449;52.696;6.186;2023-01-08T12:07:40;8.95;;;2.40;;
52542;SDS011;38449;52.696;6.186;2023-01-08T12:10:29;9.95;;;2.42;;
52542;SDS011;38449;52.696;6.186;2023-01-08T12:13:38;11.02;;;2.90;;
52542;SDS011;38449;52.696;6.186;2023-01-08T12:16:18;11.30;;;2.85;;
52542;SDS011;38449;52.696;6.186;2023-01-08T12:24:43;9.68;;;2.65;;
52542;SDS011;38449;52.696;6.186;2023-01-08T12:30:15;10.13;;;2.70;;
52542;SDS011;38449;52.696;6.186;2023-01-08T12:32:49;10.80;;;2.67;;
52542;SDS011;38449;52.696;6.186;2023-01-08T12:35:24;7.53;;;2.58;;
52542;SDS011;38449;52.696;6.186;2023-01-08T12:38:16;9.88;;;3.00;;
52542;SDS011;38449;52.696;6.186;2023-01-08T12:41:05;11.32;;;2.60;;
52542;SDS011;38449;52.696;6.186;2023-01-08T12:43:47;7.78;;;2.72;;
52542;SDS011;38449;52.696;6.186;2023-01-08T12:46:23;9.43;;;2.90;;
52542;SDS011;38449;52.696;6.186;2023-01-08T12:48:52;8.65;;;2.50;;
52542;SDS011;38449;52.696;6.186;2023-01-08T12:51:23;8.38;;;2.38;;
52542;SDS011;38449;52.696;6.186;2023-01-08T12:54:14;9.30;;;2.40;;
52542;SDS011;38449;52.696;6.186;2023-01-08T12:57:06;8.13;;;1.92;;
52542;SDS011;38449;52.696;6.186;2023-01-08T13:02:23;13.30;;;2.78;;
52542;SDS011;38449;52.696;6.186;2023-01-08T13:05:09;8.57;;;2.47;;
52542;SDS011;38449;52.696;6.186;2023-01-08T13:07:57;7.47;;;2.10;;
52542;SDS011;38449;52.696;6.186;2023-01-08T13:13:00;8.15;;;2.10;;
52542;SDS011;38449;52.696;6.186;2023-01-08T13:15:26;7.95;;;2.15;;
52542;SDS011;38449;52.696;6.186;2023-01-08T13:17:55;6.65;;;2.00;;
52542;SDS011;38449;52.696;6.186;2023-01-08T13:20:28;6.18;;;2.00;;
52542;SDS011;38449;52.696;6.186;2023-01-08T13:22:56;7.60;;;2.17;;
52542;SDS011;38449;52.696;6.186;2023-01-08T13:27:49;7.15;;;1.75;;
52542;SDS011;38449;52.696;6.186;2023-01-08T13:36:12;4.72;;;1.55;;
52542;SDS011;38449;52.696;6.186;2023-01-08T13:38:40;5.38;;;1.58;;
52542;SDS011;38449;52.696;6.186;2023-01-08T13:41:23;4.75;;;1.85;;
52542;SDS011;38449;52.696;6.186;2023-01-08T13:43:59;5.47;;;1.88;;
52542;SDS011;38449;52.696;6.186;2023-01-08T13:46:29;7.57;;;1.85;;
52542;SDS011;38449;52.696;6.186;2023-01-08T13:49:02;5.97;;;1.80;;
52542;SDS011;38449;52.696;6.186;2023-01-08T13:54:44;4.47;;;1.50;;
52542;SDS011;38449;52.696;6.186;2023-01-08T13:57:15;5.55;;;1.60;;
52542;SDS011;38449;52.696;6.186;2023-01-08T13:59:47;5.55;;;1.70;;
52542;SDS011;38449;52.696;6.186;2023-01-08T14:02:20;6.10;;;1.77;;
52542;SDS011;38449;52.696;6.186;2023-01-08T14:04:54;4.70;;;1.65;;
52542;SDS011;38449;52.696;6.186;2023-01-08T14:07:21;5.53;;;1.80;;
52542;SDS011;38449;52.696;6.186;2023-01-08T14:09:50;12.38;;;2.63;;
52542;SDS011;38449;52.696;6.186;2023-01-08T14:12:22;2.53;;;1.20;;
52542;SDS011;38449;52.696;6.186;2023-01-08T14:14:50;4.88;;;1.45;;
52542;SDS011;38449;52.696;6.186;2023-01-08T14:17:22;4.25;;;1.30;;
52542;SDS011;38449;52.696;6.186;2023-01-08T14:19:54;4.30;;;1.25;;
52542;SDS011;38449;52.696;6.186;2023-01-08T14:22:21;3.75;;;1.40;;
52542;SDS011;38449;52.696;6.186;2023-01-08T14:24:55;3.42;;;1.50;;
52542;SDS011;38449;52.696;6.186;2023-01-08T14:27:25;3.92;;;1.48;;
52542;SDS011;38449;52.696;6.186;2023-01-08T14:29:56;3.53;;;1.65;;
52542;SDS011;38449;52.696;6.186;2023-01-08T14:32:24;3.53;;;1.60;;
52542;SDS011;38449;52.696;6.186;2023-01-08T14:34:53;4.55;;;1.35;;
52542;SDS011;38449;52.696;6.186;2023-01-08T14:37:20;5.28;;;1.50;;
52542;SDS011;38449;52.696;6.186;2023-01-08T14:39:46;3.75;;;1.30;;
52542;SDS011;38449;52.696;6.186;2023-01-08T14:42:35;2.25;;;1.05;;
52542;SDS011;38449;52.696;6.186;2023-01-08T14:47:46;2.95;;;1.20;;
52542;SDS011;38449;52.696;6.186;2023-01-08T14:50:17;4.93;;;1.40;;
52542;SDS011;38449;52.696;6.186;2023-01-08T14:52:46;2.35;;;1.17;;
52542;SDS011;38449;52.696;6.186;2023-01-08T14:55:16;4.18;;;1.15;;
52542;SDS011;38449;52.696;6.186;2023-01-08T14:57:44;5.32;;;1.60;;
52542;SDS011;38449;52.696;6.186;2023-01-08T15:00:15;3.45;;;1.23;;
52542;SDS011;38449;52.696;6.186;2023-01-08T15:02:43;4.90;;;1.40;;
52542;SDS011;38449;52.696;6.186;2023-01-08T15:05:24;3.45;;;1.20;;
52542;SDS011;38449;52.696;6.186;2023-01-08T15:08:19;2.13;;;1.20;;
52542;SDS011;38449;52.696;6.186;2023-01-08T15:10:55;3.80;;;1.33;;
52542;SDS011;38449;52.696;6.186;2023-01-08T15:13:29;2.70;;;1.17;;
52542;SDS011;38449;52.696;6.186;2023-01-08T15:16:04;5.55;;;1.52;;
52542;SDS011;38449;52.696;6.186;2023-01-08T15:18:39;4.68;;;1.55;;
52542;SDS011;38449;52.696;6.186;2023-01-08T15:21:16;2.83;;;1.20;;
52542;SDS011;38449;52.696;6.186;2023-01-08T15:23:45;3.35;;;1.23;;
52542;SDS011;38449;52.696;6.186;2023-01-08T15:26:14;3.78;;;1.50;;
52542;SDS011;38449;52.696;6.186;2023-01-08T15:28:44;3.60;;;1.77;;
52542;SDS011;38449;52.696;6.186;2023-01-08T15:31:26;4.38;;;1.83;;
52542;SDS011;38449;52.696;6.186;2023-01-08T15:33:53;4.82;;;1.50;;
52542;SDS011;38449;52.696;6.186;2023-01-08T15:36:19;4.03;;;1.48;;
52542;SDS011;38449;52.696;6.186;2023-01-08T15:38:45;3.55;;;1.50;;
52542;SDS011;38449;52.696;6.186;2023-01-08T15:41:13;4.50;;;1.75;;
52542;SDS011;38449;52.696;6.186;2023-01-08T15:44:01;5.18;;;1.80;;
52542;SDS011;38449;52.696;6.186;2023-01-08T15:46:28;6.15;;;2.08;;
52542;SDS011;38449;52.696;6.186;2023-01-08T15:48:53;4.90;;;1.67;;
52542;SDS011;38449;52.696;6.186;2023-01-08T15:51:19;3.50;;;1.50;;
52542;SDS011;38449;52.696;6.186;2023-01-08T15:53:44;4.82;;;2.47;;
52542;SDS011;38449;52.696;6.186;2023-01-08T15:56:10;5.82;;;4.00;;